Time;durP1;ratioP1;P1;durP2;ratioP2;P2;SDS_P1;SDS_P2;PMS_P1;PMS_P2;Temp;Humidity;BMP_temperature;BMP_pressure;BME280_temperature;BME280_humidity;BME280_pressure;Samples;Min_cycle;Max_cycle;Signal;HPM_P1;HPM_P2
2022/11/19 00:00:37;;;;;;;4.95;3.17;;;;;;;18.97;48.27;100650.38;4994604;28;20132;-64
2022/11/19 00:03:02;;;;;;;4.82;2.78;;;;;;;19.00;48.50;100657.19;4994270;28;20040;-65
2022/11/19 00:05:27;;;;;;;5.35;3.00;;;;;;;18.94;48.43;100649.81;4994200;28;20050;-66
2022/11/19 00:07:52;;;;;;;5.30;3.00;;;;;;;18.93;48.31;100653.41;4994295;28;20034;-64
2022/11/19 00:10:18;;;;;;;5.80;2.90;;;;;;;18.93;48.45;100664.84;4994047;28;20272;-65
2022/11/19 00:12:55;;;;;;;5.27;3.10;;;;;;;18.93;48.10;100663.97;4993994;28;20275;-66
2022/11/19 00:15:23;;;;;;;4.93;3.05;;;;;;;18.91;48.25;100660.66;4994068;28;20288;-65
2022/11/19 00:17:48;;;;;;;5.75;3.60;;;;;;;18.89;48.27;100659.94;4994110;28;20164;-65
2022/11/19 00:20:16;;;;;;;5.28;3.35;;;;;;;18.84;48.02;100661.19;4993586;28;20037;-67
2022/11/19 00:22:41;;;;;;;5.13;3.30;;;;;;;18.85;47.75;100667.31;4993829;28;20038;-65
2022/11/19 00:25:07;;;;;;;5.20;3.53;;;;;;;18.80;47.70;100662.41;4993705;28;20092;-65
2022/11/19 00:27:32;;;;;;;5.45;3.50;;;;;;;18.81;47.90;100671.97;4994088;28;20030;-65
2022/11/19 00:29:58;;;;;;;6.20;3.35;;;;;;;18.77;47.85;100675.00;4994064;28;20034;-64
2022/11/19 00:32:23;;;;;;;4.97;3.20;;;;;;;18.78;47.46;100672.22;4993630;28;20080;-66
2022/11/19 00:34:48;;;;;;;5.27;3.30;;;;;;;18.75;47.84;100675.13;4993563;28;20063;-64
2022/11/19 00:37:13;;;;;;;5.90;3.87;;;;;;;18.74;47.46;100680.53;4994305;28;20298;-66
2022/11/19 00:39:39;;;;;;;5.93;3.47;;;;;;;18.72;47.59;100682.50;4993509;28;20282;-64
2022/11/19 00:42:04;;;;;;;6.20;3.70;;;;;;;18.73;47.49;100682.38;4993531;28;20027;-67
2022/11/19 00:44:29;;;;;;;5.88;3.47;;;;;;;18.66;47.61;100679.41;4994069;28;20276;-64
2022/11/19 00:46:54;;;;;;;6.57;4.13;;;;;;;18.71;47.40;100688.72;4993699;28;20041;-67
2022/11/19 00:49:20;;;;;;;6.75;3.80;;;;;;;18.68;47.61;100684.56;4999963;28;20275;-67
2022/11/19 00:51:45;;;;;;;5.70;3.63;;;;;;;18.68;47.56;100690.69;4993676;28;20107;-65
2022/11/19 00:54:10;;;;;;;5.50;3.80;;;;;;;18.64;47.38;100680.50;4993073;28;20045;-65
2022/11/19 00:56:36;;;;;;;5.72;3.75;;;;;;;18.64;47.45;100689.28;4993222;28;20049;-64
2022/11/19 00:59:01;;;;;;;5.63;3.72;;;;;;;18.59;47.35;100682.72;4993261;28;20557;-65
2022/11/19 01:01:26;;;;;;;6.57;4.68;;;;;;;18.60;47.29;100687.03;4993427;28;20042;-66
2022/11/19 01:03:53;;;;;;;6.38;3.92;;;;;;;18.48;47.25;100675.72;4993569;28;20042;-64
2022/11/19 01:06:20;;;;;;;6.45;3.90;;;;;;;18.50;47.20;100676.44;4992160;28;20041;-64
2022/11/19 01:08:47;;;;;;;5.97;4.28;;;;;;;18.58;47.15;100688.94;4993353;28;20037;-64
2022/11/19 01:11:22;;;;;;;5.72;3.80;;;;;;;18.51;47.26;100686.00;4993485;28;20038;-65
2022/11/19 01:13:48;;;;;;;7.10;4.18;;;;;;;18.48;47.01;100688.91;4993240;28;20137;-66
2022/11/19 01:16:20;;;;;;;5.75;4.22;;;;;;;18.55;47.06;100702.41;4993133;28;20108;-63
2022/11/19 01:18:47;;;;;;;6.47;4.22;;;;;;;18.48;47.14;100702.97;4992737;28;20119;-66
2022/11/19 01:21:13;;;;;;;5.80;4.18;;;;;;;18.46;46.84;100704.03;4992875;28;20209;-65
2022/11/19 01:23:40;;;;;;;6.00;4.05;;;;;;;18.48;47.17;100704.75;4992434;28;20038;-64
2022/11/19 01:26:06;;;;;;;6.40;4.20;;;;;;;18.46;46.99;100706.69;4992127;28;20034;-66
2022/11/19 01:28:32;;;;;;;5.32;3.83;;;;;;;18.48;46.90;100720.56;4992820;28;20038;-65
2022/11/19 01:30:57;;;;;;;5.90;3.83;;;;;;;18.48;46.97;100717.94;4992743;28;20026;-66
2022/11/19 01:33:23;;;;;;;6.00;4.13;;;;;;;18.42;46.88;100715.81;4992833;28;20034;-65
2022/11/19 01:35:56;;;;;;;6.22;4.22;;;;;;;18.41;46.62;100725.53;4992879;28;20040;-65
2022/11/19 01:38:21;;;;;;;6.35;4.53;;;;;;;18.44;46.96;100729.72;4992648;28;20030;-64
2022/11/19 01:40:46;;;;;;;7.00;4.17;;;;;;;18.40;46.77;100728.31;4992975;28;20030;-65
2022/11/19 01:43:12;;;;;;;6.20;4.20;;;;;;;18.36;46.97;100733.00;4992542;28;20263;-64
2022/11/19 01:45:53;;;;;;;6.22;4.20;;;;;;;18.42;46.85;100740.41;4992368;28;20279;-65
2022/11/19 01:48:26;;;;;;;6.20;4.72;;;;;;;18.41;46.70;100744.00;4992011;28;20064;-65
2022/11/19 01:51:00;;;;;;;7.07;4.53;;;;;;;18.35;46.74;100741.88;4992847;28;20022;-65
2022/11/19 01:53:30;;;;;;;5.85;4.03;;;;;;;18.39;46.71;100745.94;4991898;28;20033;-65
2022/11/19 01:56:02;;;;;;;7.45;4.20;;;;;;;18.38;46.62;100751.34;4992091;28;20137;-64
2022/11/19 01:58:30;;;;;;;7.05;4.97;;;;;;;18.34;46.60;100744.66;4992389;28;20068;-63
2022/11/19 02:00:55;;;;;;;6.68;4.60;;;;;;;18.31;46.23;100737.84;4992456;28;20034;-65
2022/11/19 02:03:20;;;;;;;6.20;4.50;;;;;;;18.32;46.31;100747.41;4992320;28;20044;-65
2022/11/19 02:05:46;;;;;;;7.55;5.05;;;;;;;18.33;46.22;100746.47;4992207;28;20042;-65
2022/11/19 02:08:44;;;;;;;6.93;4.40;;;;;;;18.31;46.29;100765.06;4991996;28;20030;-65
2022/11/19 02:11:12;;;;;;;6.45;4.95;;;;;;;18.30;46.24;100752.81;4991678;28;20054;-65
2022/11/19 02:13:44;;;;;;;5.90;4.38;;;;;;;18.27;46.02;100753.06;4991882;28;20041;-63
2022/11/19 02:16:25;;;;;;;7.22;4.75;;;;;;;18.28;46.15;100760.03;4991753;28;20045;-64
2022/11/19 02:19:01;;;;;;;6.65;4.50;;;;;;;18.27;46.13;100763.63;4991273;28;20486;-64
2022/11/19 02:21:41;;;;;;;7.38;4.75;;;;;;;18.22;46.13;100755.25;4991699;28;20041;-66
2022/11/19 02:24:28;;;;;;;6.20;4.43;;;;;;;18.21;46.29;100755.38;4991654;28;20037;-64
2022/11/19 02:27:28;;;;;;;6.65;4.70;;;;;;;18.25;45.95;100765.56;4991730;28;20462;-66
2022/11/19 02:30:05;;;;;;;7.60;4.60;;;;;;;18.25;46.21;100767.38;4991428;28;20036;-64
2022/11/19 02:32:43;;;;;;;5.93;4.50;;;;;;;18.20;46.07;100753.69;4991821;28;20402;-63
2022/11/19 02:35:29;;;;;;;6.32;4.50;;;;;;;18.25;46.00;100767.38;4991424;28;20088;-64
2022/11/19 02:38:02;;;;;;;6.50;4.57;;;;;;;18.21;46.15;100758.03;4991899;28;20169;-65
2022/11/19 02:40:33;;;;;;;6.57;4.50;;;;;;;18.25;46.06;100759.44;4991813;28;20041;-66
2022/11/19 02:43:15;;;;;;;5.80;4.30;;;;;;;18.22;46.21;100760.53;4991281;28;20048;-65
2022/11/19 02:46:00;;;;;;;6.75;4.20;;;;;;;18.21;45.87;100758.84;4991019;28;20041;-64
2022/11/19 02:48:34;;;;;;;6.38;4.43;;;;;;;18.24;45.84;100768.31;4991422;28;20065;-64
2022/11/19 02:51:00;;;;;;;;;;;;;;;18.24;45.88;100776.22;4991513;28;20117;-63
2022/11/19 02:53:26;;;;;;;6.38;4.35;;;;;;;18.26;45.75;100774.28;4991947;28;20160;-66
2022/11/19 02:56:09;;;;;;;6.07;4.40;;;;;;;18.27;46.03;100773.34;4991373;28;20473;-64
2022/11/19 03:04:29;;;;;;;5.45;3.75;;;;;;;18.24;45.65;100790.25;4991129;28;20076;-63
2022/11/19 03:06:57;;;;;;;5.13;3.72;;;;;;;18.18;45.80;100780.19;4990819;28;20379;-65
2022/11/19 03:09:23;;;;;;;6.13;4.30;;;;;;;18.22;45.44;100791.38;4990768;28;20045;-66
2022/11/19 03:11:56;;;;;;;6.15;4.00;;;;;;;18.22;45.64;100794.81;4991130;28;20034;-64
2022/11/19 03:17:26;;;;;;;5.32;3.88;;;;;;;18.21;45.49;100798.41;4990770;28;20084;-66
2022/11/19 03:20:08;;;;;;;5.45;3.80;;;;;;;18.21;45.21;100802.88;4991098;28;20463;-68
2022/11/19 03:22:59;;;;;;;5.65;3.92;;;;;;;18.15;45.25;100790.19;4991393;28;20169;-66
2022/11/19 03:25:34;;;;;;;4.93;3.65;;;;;;;18.15;44.87;100791.03;4981040;28;20047;-65
2022/11/19 03:28:07;;;;;;;5.22;3.75;;;;;;;18.08;45.16;100787.22;4990732;28;20045;-65
2022/11/19 03:30:33;;;;;;;6.20;3.90;;;;;;;18.16;44.96;100805.06;4993898;28;20041;-64
2022/11/19 03:33:06;;;;;;;5.40;3.85;;;;;;;18.10;44.64;100803.75;4994817;28;20029;-67
2022/11/19 03:35:39;;;;;;;5.67;3.47;;;;;;;18.08;45.01;100801.22;4995180;28;20066;-66
2022/11/19 03:38:10;;;;;;;5.83;3.97;;;;;;;18.07;44.57;100799.56;4995233;28;21276;-65
2022/11/19 03:40:37;;;;;;;5.45;3.75;;;;;;;18.10;44.73;100812.50;4994796;28;20796;-64
2022/11/19 03:43:07;;;;;;;5.20;3.35;;;;;;;17.94;44.86;100776.00;4995019;28;20462;-66
2022/11/19 03:45:38;;;;;;;5.68;4.07;;;;;;;18.05;44.74;100798.00;4995060;28;20549;-65
2022/11/19 03:48:04;;;;;;;5.32;3.65;;;;;;;18.08;44.65;100808.31;4994622;28;20046;-64
2022/11/19 03:50:41;;;;;;;5.07;3.75;;;;;;;18.03;44.79;100800.78;4994896;28;20049;-65
2022/11/19 03:53:07;;;;;;;5.53;3.72;;;;;;;18.00;44.85;100803.66;4994825;28;20053;-66
2022/11/19 03:55:37;;;;;;;6.28;4.40;;;;;;;18.05;44.45;100812.03;4993720;28;20116;-65
2022/11/19 03:58:04;;;;;;;5.43;3.72;;;;;;;18.04;44.53;100820.91;4994835;28;20037;-66
2022/11/19 04:00:30;;;;;;;5.18;3.53;;;;;;;17.98;44.41;100818.78;4994590;28;20033;-65
2022/11/19 04:02:55;;;;;;;5.00;3.60;;;;;;;18.00;44.75;100811.56;4994322;28;20890;-64
2022/11/19 04:05:21;;;;;;;5.60;3.63;;;;;;;17.90;44.52;100800.09;4994655;28;20108;-65
2022/11/19 04:07:46;;;;;;;5.30;3.75;;;;;;;17.99;44.69;100823.09;4994307;28;20299;-66
2022/11/19 04:10:11;;;;;;;6.20;3.97;;;;;;;18.05;44.48;100825.22;4994191;28;20108;-65
2022/11/19 04:12:37;;;;;;;5.45;3.60;;;;;;;18.05;44.31;100825.22;4994081;28;20264;-66
2022/11/19 04:15:02;;;;;;;5.53;3.63;;;;;;;18.06;44.35;100828.69;4993665;28;20040;-65
2022/11/19 04:17:27;;;;;;;6.15;3.67;;;;;;;18.04;44.42;100827.97;4993954;28;20354;-65
2022/11/19 04:19:53;;;;;;;5.20;3.72;;;;;;;18.06;44.09;100837.44;4994319;28;20121;-64
2022/11/19 04:22:18;;;;;;;5.67;3.70;;;;;;;18.04;44.46;100838.50;4994349;28;20061;-66
2022/11/19 04:24:43;;;;;;;5.27;3.77;;;;;;;17.91;44.06;100820.22;4994171;28;20674;-64
2022/11/19 04:27:08;;;;;;;5.38;3.88;;;;;;;18.03;43.91;100842.13;4993312;28;20276;-65
2022/11/19 04:29:34;;;;;;;6.35;4.55;;;;;;;17.97;43.94;100842.63;4994282;28;20180;-65
2022/11/19 04:31:59;;;;;;;5.80;3.77;;;;;;;17.91;44.35;100834.25;4993852;28;20061;-67
2022/11/19 04:34:24;;;;;;;5.53;4.23;;;;;;;18.00;44.16;100853.75;4993912;28;20259;-65
2022/11/19 04:36:49;;;;;;;5.67;4.10;;;;;;;17.93;44.26;100852.59;4993662;28;20283;-68
2022/11/19 04:39:15;;;;;;;5.75;3.88;;;;;;;17.98;44.05;100860.13;4994035;28;20631;-66
2022/11/19 04:41:41;;;;;;;6.15;4.50;;;;;;;17.97;43.93;100864.53;4992495;28;20479;-65
2022/11/19 04:44:06;;;;;;;5.97;4.00;;;;;;;17.90;43.87;100850.19;4994191;28;20038;-64
2022/11/19 04:46:32;;;;;;;6.07;3.92;;;;;;;17.90;43.79;100850.19;4993444;28;20038;-64
2022/11/19 04:48:58;;;;;;;5.32;3.58;;;;;;;17.88;43.81;100842.41;4993729;28;20434;-63
2022/11/19 04:51:24;;;;;;;6.03;4.28;;;;;;;17.91;43.80;100857.13;4993453;28;20026;-65
2022/11/19 04:53:49;;;;;;;5.60;4.05;;;;;;;17.89;43.84;100853.78;4993658;28;20039;-64
2022/11/19 04:56:14;;;;;;;5.90;4.30;;;;;;;17.80;43.85;100836.03;4993251;28;20509;-64
2022/11/19 04:58:40;;;;;;;5.13;3.75;;;;;;;17.92;43.82;100853.53;4993598;28;20046;-64
2022/11/19 05:01:05;;;;;;;6.20;4.00;;;;;;;17.90;43.84;100850.19;4994486;28;20035;-66
2022/11/19 05:03:31;;;;;;;5.75;4.22;;;;;;;17.93;43.79;100863.97;4993156;28;20092;-66
2022/11/19 05:05:56;;;;;;;5.93;4.18;;;;;;;17.93;43.51;100868.41;4992891;28;20045;-64
2022/11/19 05:08:22;;;;;;;6.25;4.03;;;;;;;17.90;43.66;100861.56;4993692;28;20072;-64
2022/11/19 05:10:47;;;;;;;5.70;3.95;;;;;;;17.89;43.38;100865.16;4993199;28;20128;-65
2022/11/19 05:13:13;;;;;;;6.13;4.57;;;;;;;17.92;43.41;100870.19;4993374;28;20083;-66
2022/11/19 05:15:38;;;;;;;6.05;4.25;;;;;;;17.88;43.33;100881.09;4993113;28;20026;-64
2022/11/19 05:18:03;;;;;;;5.65;4.30;;;;;;;17.85;43.49;100876.03;5008127;28;20043;-63
2022/11/19 05:20:29;;;;;;;5.80;4.30;;;;;;;17.91;43.24;100899.31;4993411;28;20053;-64
2022/11/19 05:22:54;;;;;;;5.82;4.00;;;;;;;17.90;43.50;100889.75;4992915;28;20038;-67
2022/11/19 05:25:19;;;;;;;6.70;4.60;;;;;;;17.86;43.38;100886.47;4993161;28;20040;-65
2022/11/19 05:27:44;;;;;;;5.70;4.18;;;;;;;17.88;43.54;100894.28;4992377;28;21239;-67
2022/11/19 05:30:10;;;;;;;6.30;4.13;;;;;;;17.80;43.13;100881.69;4993526;28;20037;-63
2022/11/19 05:32:36;;;;;;;5.93;4.22;;;;;;;17.81;43.30;100886.00;4992327;28;20368;-66
2022/11/19 05:35:02;;;;;;;5.22;3.90;;;;;;;17.83;43.49;100893.78;4992698;28;20040;-65
2022/11/19 05:37:27;;;;;;;5.82;4.30;;;;;;;17.79;43.42;100889.72;4992130;28;20115;-65
2022/11/19 05:39:52;;;;;;;5.90;4.25;;;;;;;17.78;43.45;100894.13;4992833;28;20069;-65
2022/11/19 05:42:18;;;;;;;6.33;4.33;;;;;;;17.78;43.33;100899.41;4992469;28;20887;-65
2022/11/19 05:44:43;;;;;;;6.87;4.37;;;;;;;17.82;43.36;100906.13;4993049;28;20268;-64
2022/11/19 05:47:08;;;;;;;6.37;4.50;;;;;;;17.77;42.70;100903.84;4992254;28;20259;-65
2022/11/19 05:49:33;;;;;;;6.22;4.32;;;;;;;17.84;42.81;100911.28;4992623;28;20271;-65
2022/11/19 05:51:59;;;;;;;5.60;4.20;;;;;;;17.84;43.43;100911.28;4992538;28;20391;-64
2022/11/19 05:54:24;;;;;;;6.37;4.50;;;;;;;17.77;43.24;100903.03;4992682;28;20345;-63
2022/11/19 05:56:49;;;;;;;6.82;4.55;;;;;;;17.82;43.51;100915.84;4991751;28;20406;-65
2022/11/19 05:59:14;;;;;;;7.47;4.90;;;;;;;17.82;43.34;100915.84;4991935;28;20030;-65
2022/11/19 06:01:40;;;;;;;6.20;4.60;;;;;;;17.81;43.02;100920.25;4992773;28;20267;-64
2022/11/19 06:04:05;;;;;;;6.63;4.72;;;;;;;17.80;42.76;100923.88;4992909;28;20359;-66
2022/11/19 06:06:30;;;;;;;6.53;4.60;;;;;;;17.76;43.23;100920.63;4991852;28;20026;-65
2022/11/19 06:08:55;;;;;;;6.60;5.20;;;;;;;17.79;43.28;100918.72;4992657;28;20068;-66
2022/11/19 06:14:05;;;;;;;7.82;4.85;;;;;;;17.85;44.17;100918.22;4992320;28;20302;-63
2022/11/19 06:16:30;;;;;;;5.82;4.20;;;;;;;17.89;44.50;100919.69;4991274;28;20066;-65
2022/11/19 06:18:55;;;;;;;5.90;3.87;;;;;;;17.94;44.27;100926.28;4992252;28;20033;-63
2022/11/19 06:21:21;;;;;;;5.00;3.40;;;;;;;18.03;44.30;100939.72;4991643;28;20263;-64
2022/11/19 06:23:46;;;;;;;5.22;3.60;;;;;;;18.08;44.63;100948.09;4991991;28;20702;-67
2022/11/19 06:26:21;;;;;;;5.63;3.65;;;;;;;18.07;44.47;100941.97;4991586;28;20044;-65
2022/11/19 06:28:46;;;;;;;5.20;3.75;;;;;;;18.15;44.41;100953.72;4991877;28;20042;-63
2022/11/19 06:31:12;;;;;;;4.50;3.10;;;;;;;18.20;44.61;100957.66;4992010;28;20056;-64
2022/11/19 06:33:37;;;;;;;4.77;3.10;;;;;;;18.22;44.36;100955.72;4991686;28;20264;-66
2022/11/19 06:36:02;;;;;;;4.40;3.07;;;;;;;18.30;44.60;100968.31;4991555;28;20421;-65
2022/11/19 06:38:28;;;;;;;5.25;3.58;;;;;;;18.29;44.34;100959.56;4991685;28;20792;-64
2022/11/19 06:40:53;;;;;;;5.25;3.35;;;;;;;18.34;44.51;100974.19;4991439;28;20030;-64
2022/11/19 06:43:18;;;;;;;5.43;3.43;;;;;;;18.38;44.62;100978.25;4991458;28;20068;-64
2022/11/19 06:45:43;;;;;;;4.68;3.17;;;;;;;18.40;44.44;100969.25;4997998;28;20275;-63
2022/11/19 06:48:09;;;;;;;5.33;3.10;;;;;;;18.39;44.40;100964.94;4991282;28;20030;-67
2022/11/19 06:50:34;;;;;;;6.38;4.00;;;;;;;18.42;43.91;100967.34;4991707;28;20739;-66
2022/11/19 06:52:59;;;;;;;6.23;4.80;;;;;;;18.43;42.63;100966.34;4991771;28;20038;-65
2022/11/19 06:55:26;;;;;;;6.67;4.50;;;;;;;18.40;43.03;100963.97;4991052;28;20401;-65
2022/11/19 06:57:51;;;;;;;4.90;3.67;;;;;;;18.48;43.83;100973.91;4990802;28;20275;-67
2022/11/19 07:00:17;;;;;;;5.43;3.80;;;;;;;18.50;43.85;100979.94;4991420;28;20053;-65
2022/11/19 07:02:42;;;;;;;5.20;3.65;;;;;;;18.53;44.03;100977.00;4991393;28;20038;-66
2022/11/19 07:05:07;;;;;;;5.60;3.40;;;;;;;18.53;43.59;100976.19;4991309;28;20574;-65
2022/11/19 07:07:33;;;;;;;4.82;3.45;;;;;;;18.59;43.61;100988.88;4990980;28;20264;-63
2022/11/19 07:09:59;;;;;;;4.93;3.45;;;;;;;18.58;43.96;100987.19;4991372;28;20042;-66
2022/11/19 07:12:25;;;;;;;4.53;3.33;;;;;;;18.62;43.24;100993.91;4991861;28;20084;-65
2022/11/19 07:14:50;;;;;;;5.03;3.67;;;;;;;18.63;43.15;100999.06;4991645;28;20034;-66
2022/11/19 07:17:15;;;;;;;6.97;5.47;;;;;;;18.58;41.17;100989.84;4991019;28;20463;-67
2022/11/19 07:19:41;;;;;;;6.55;5.20;;;;;;;18.59;42.51;100996.81;4990764;28;20029;-66
2022/11/19 07:22:06;;;;;;;5.80;4.38;;;;;;;18.62;42.82;101005.31;4991185;28;20374;-64
2022/11/19 07:24:31;;;;;;;5.35;3.70;;;;;;;18.58;42.88;101003.88;4991213;28;20402;-66
2022/11/19 07:26:57;;;;;;;5.85;4.45;;;;;;;18.65;43.17;101006.88;4990490;28;20635;-66
2022/11/19 07:29:22;;;;;;;6.22;4.25;;;;;;;18.66;43.01;101011.19;4991181;28;20041;-65
2022/11/19 07:31:49;;;;;;;6.20;4.25;;;;;;;18.61;43.26;101000.16;4991222;28;20049;-65
2022/11/19 07:34:15;;;;;;;7.53;5.65;;;;;;;18.66;41.90;101021.75;4990749;28;20950;-66
2022/11/19 07:36:41;;;;;;;6.65;4.65;;;;;;;18.64;42.51;101021.03;4990778;28;20066;-66
2022/11/19 07:39:06;;;;;;;7.32;4.88;;;;;;;18.58;42.49;101018.88;4990869;28;20058;-67
2022/11/19 07:44:16;;;;;;;7.18;4.72;;;;;;;18.65;43.06;101033.25;4990994;28;20088;-66
2022/11/19 07:46:41;;;;;;;9.35;4.97;;;;;;;18.66;43.07;101037.59;4990522;28;20034;-67
2022/11/19 07:49:07;;;;;;;6.20;4.70;;;;;;;18.66;43.43;101033.16;4991090;28;20461;-65
2022/11/19 07:51:32;;;;;;;6.18;4.40;;;;;;;18.70;43.25;101036.38;4991133;28;20538;-66
2022/11/19 07:53:57;;;;;;;7.13;4.85;;;;;;;18.70;43.32;101044.28;4990581;28;20030;-65
2022/11/19 07:56:22;;;;;;;6.47;5.07;;;;;;;18.70;42.96;101038.19;4990371;28;20057;-65
2022/11/19 07:58:48;;;;;;;7.20;4.90;;;;;;;18.68;43.05;101033.84;4990720;28;20263;-65
2022/11/19 08:01:17;;;;;;;7.25;5.18;;;;;;;18.75;42.96;101050.03;4991514;28;20049;-67
2022/11/19 08:03:45;;;;;;;7.00;4.53;;;;;;;18.74;43.03;101051.00;4990906;28;20417;-65
2022/11/19 08:06:10;;;;;;;9.95;5.40;;;;;;;18.73;42.68;101049.31;4990739;28;20406;-67
2022/11/19 08:08:36;;;;;;;8.68;5.45;;;;;;;18.73;42.90;101051.13;4990669;28;20046;-66
2022/11/19 08:11:06;;;;;;;6.87;4.87;;;;;;;18.76;42.76;101050.88;4990775;28;20039;-64
2022/11/19 08:13:32;;;;;;;11.55;6.50;;;;;;;18.72;41.96;101052.91;4990412;28;20263;-65
2022/11/19 08:16:02;;;;;;;8.00;5.13;;;;;;;18.72;42.48;101058.19;4990740;28;20033;-65
2022/11/19 08:18:27;;;;;;;8.40;5.43;;;;;;;18.62;43.09;101052.00;4994404;28;20121;-66
2022/11/19 08:20:53;;;;;;;7.43;4.90;;;;;;;18.72;43.37;101058.19;4994618;28;20121;-67
2022/11/19 08:23:18;;;;;;;7.30;4.95;;;;;;;18.70;43.33;101052.22;4994106;28;20526;-69
2022/11/19 08:25:44;;;;;;;7.93;5.43;;;;;;;18.74;43.54;101052.78;4994348;28;20076;-69
2022/11/19 08:28:10;;;;;;;7.75;5.63;;;;;;;18.80;44.23;101069.00;4994026;28;20070;-65
2022/11/19 08:30:39;;;;;;;9.48;5.93;;;;;;;18.78;44.72;101057.72;4994665;28;20042;-66
2022/11/19 08:33:05;;;;;;;9.43;5.72;;;;;;;18.84;45.04;101059.06;4994013;28;20057;-67
2022/11/19 08:35:30;;;;;;;12.10;6.65;;;;;;;18.81;44.83;101056.63;4993540;28;20463;-66
2022/11/19 08:37:57;;;;;;;10.50;5.82;;;;;;;18.86;44.90;101072.97;4993259;28;20045;-67
2022/11/19 08:40:22;;;;;;;12.68;6.63;;;;;;;18.87;44.86;101071.16;4994114;28;20034;-66
2022/11/19 08:43:00;;;;;;;9.23;6.43;;;;;;;18.87;44.83;101064.09;4994198;28;20071;-68
2022/11/19 08:45:37;;;;;;;10.55;6.28;;;;;;;18.85;44.79;101063.38;4994309;28;20043;-66
2022/11/19 08:48:05;;;;;;;8.18;5.55;;;;;;;18.88;44.78;101072.84;4993930;28;20355;-66
2022/11/19 08:50:31;;;;;;;11.90;7.10;;;;;;;18.91;44.02;101077.88;4993666;28;20033;-64
2022/11/19 08:53:04;;;;;;;9.90;6.47;;;;;;;18.84;44.25;101073.09;4993278;28;20034;-65
2022/11/19 08:55:30;;;;;;;12.80;6.25;;;;;;;18.82;44.30;101077.63;4992907;28;20036;-67
2022/11/19 08:58:00;;;;;;;10.48;6.55;;;;;;;18.89;44.48;101085.91;4993838;28;20125;-67
2022/11/19 09:00:25;;;;;;;11.07;6.30;;;;;;;18.89;44.32;101088.56;4993523;28;20037;-65
2022/11/19 09:02:50;;;;;;;10.85;6.57;;;;;;;18.88;44.26;101088.69;4993421;28;20481;-65
2022/11/19 09:05:16;;;;;;;11.57;6.67;;;;;;;18.81;44.11;101075.94;4992955;28;20922;-65
2022/11/19 09:07:41;;;;;;;10.70;6.50;;;;;;;18.83;43.58;101094.31;4993589;28;20283;-66
2022/11/19 09:10:07;;;;;;;12.82;8.77;;;;;;;18.71;42.00;101082.94;4993559;28;20188;-65
2022/11/19 09:12:32;;;;;;;9.82;6.97;;;;;;;18.68;43.54;101086.66;4993343;28;20034;-67
2022/11/19 09:14:58;;;;;;;9.07;6.40;;;;;;;18.64;43.76;101079.09;4993284;28;21206;-66
2022/11/19 09:17:23;;;;;;;9.20;6.50;;;;;;;18.66;43.91;101087.75;4992862;28;20630;-70
2022/11/19 09:19:48;;;;;;;10.00;6.70;;;;;;;18.68;44.16;101099.84;4991074;28;20302;-73
2022/11/19 09:22:14;;;;;;;11.35;6.55;;;;;;;18.64;44.03;101094.94;4992300;28;20049;-71
2022/11/19 09:24:39;;;;;;;10.77;7.40;;;;;;;18.73;43.60;101103.94;4992569;28;20046;-65
2022/11/19 09:27:04;;;;;;;9.10;6.55;;;;;;;18.75;43.65;101109.94;4991307;28;20276;-67
2022/11/19 09:29:30;;;;;;;10.05;6.93;;;;;;;18.70;43.58;101112.94;4991553;28;20107;-68
2022/11/19 09:31:55;;;;;;;9.13;6.75;;;;;;;18.68;43.69;101107.78;4992947;28;20038;-66
2022/11/19 09:34:20;;;;;;;9.73;7.05;;;;;;;18.75;43.82;101117.84;4991388;28;20044;-66
2022/11/19 09:36:45;;;;;;;9.55;6.72;;;;;;;18.69;43.80;101113.88;4991568;28;20117;-65
2022/11/19 09:39:11;;;;;;;10.30;7.20;;;;;;;18.71;43.60;101121.69;4992134;28;20041;-64
2022/11/19 09:41:42;;;;;;;10.45;6.90;;;;;;;18.72;43.45;101110.16;4991969;28;20664;-68
2022/11/19 09:44:52;;;;;;;10.63;7.20;;;;;;;18.76;43.30;101130.09;4991905;28;20033;-66
2022/11/19 09:47:48;;;;;;;9.20;6.85;;;;;;;18.74;43.18;101135.50;4992055;28;20040;-65
2022/11/19 09:50:26;;;;;;;9.07;6.38;;;;;;;18.66;43.23;101132.63;4992101;28;20064;-67
2022/11/19 09:53:01;;;;;;;9.45;6.70;;;;;;;18.71;43.13;101148.06;4991510;28;20033;-64
2022/11/19 09:55:33;;;;;;;8.93;6.80;;;;;;;18.64;43.14;101138.03;4990844;28;20088;-67
2022/11/19 09:57:59;;;;;;;9.38;6.75;;;;;;;18.62;42.62;101144.38;4991703;28;20120;-66
2022/11/19 10:00:27;;;;;;;9.73;7.63;;;;;;;18.56;41.34;101143.03;4991593;28;21147;-64
2022/11/19 10:02:54;;;;;;;9.77;6.60;;;;;;;18.56;42.98;101144.84;4991798;28;20037;-66
2022/11/19 10:05:29;;;;;;;8.68;5.82;;;;;;;18.59;43.10;101145.44;4991308;28;20121;-69
2022/11/19 10:08:14;;;;;;;9.55;6.57;;;;;;;18.58;43.30;101135.88;4991407;28;20037;-66
2022/11/19 10:11:17;;;;;;;8.77;6.57;;;;;;;18.64;43.30;101148.59;4991911;28;20034;-66
2022/11/19 10:13:58;;;;;;;8.73;6.70;;;;;;;18.62;43.14;101142.56;4979520;28;20034;-67
2022/11/19 10:16:49;;;;;;;8.95;6.05;;;;;;;18.71;43.41;101156.84;4990204;28;20042;-68
2022/11/19 10:19:39;;;;;;;8.45;5.70;;;;;;;18.71;43.10;101153.34;4991867;28;20030;-65
2022/11/19 10:22:07;;;;;;;8.18;6.45;;;;;;;18.76;43.14;101159.97;4991316;28;20049;-68
2022/11/19 10:24:44;;;;;;;8.85;6.03;;;;;;;18.75;42.88;101155.63;4991859;28;20037;-65
2022/11/19 10:27:18;;;;;;;9.85;6.55;;;;;;;18.78;42.67;101158.03;4991001;28;20074;-63
2022/11/19 10:29:46;;;;;;;8.75;6.38;;;;;;;18.80;43.05;101166.69;4992045;28;20049;-63
2022/11/19 10:32:21;;;;;;;10.07;6.22;;;;;;;18.78;42.75;101160.69;4991934;28;20048;-64
2022/11/19 10:34:50;;;;;;;8.35;5.97;;;;;;;18.79;42.75;101164.19;4991097;28;20037;-67
2022/11/19 10:37:19;;;;;;;8.30;6.50;;;;;;;18.81;42.76;101172.81;4991400;28;20037;-65
2022/11/19 10:39:55;;;;;;;8.63;5.97;;;;;;;18.76;42.62;101167.88;4991040;28;20065;-64
2022/11/19 10:42:27;;;;;;;11.02;6.47;;;;;;;18.78;42.72;101163.31;4991097;28;20430;-64
2022/11/19 10:45:02;;;;;;;8.07;5.93;;;;;;;18.81;42.24;101170.16;4991331;28;20044;-66
2022/11/19 10:47:43;;;;;;;9.57;6.10;;;;;;;18.83;42.11;101170.88;4991106;28;20045;-64
2022/11/19 10:50:16;;;;;;;7.63;5.95;;;;;;;18.80;42.21;101166.69;4991250;28;20034;-65
2022/11/19 10:52:45;;;;;;;7.20;5.70;;;;;;;18.81;42.13;101168.34;4991724;28;20037;-66
2022/11/19 10:55:16;;;;;;;8.60;5.82;;;;;;;18.83;42.18;101173.53;4991374;28;20038;-64
2022/11/19 10:57:44;;;;;;;7.80;5.78;;;;;;;18.77;42.13;101160.81;4990853;28;20026;-63
2022/11/19 11:00:10;;;;;;;8.25;6.35;;;;;;;18.81;42.01;101164.88;4990925;28;20564;-65
2022/11/19 11:02:48;;;;;;;7.97;5.53;;;;;;;18.79;41.67;101166.81;4991159;28;20201;-66
2022/11/19 11:05:15;;;;;;;8.20;5.97;;;;;;;18.82;41.66;101174.50;4991509;28;20068;-63
2022/11/19 11:07:59;;;;;;;8.98;5.72;;;;;;;18.76;41.72;101174.97;4991069;28;20448;-65
2022/11/19 11:10:44;;;;;;;7.55;5.55;;;;;;;18.75;41.94;101170.66;4991133;28;20427;-65
2022/11/19 11:16:03;;;;;;;8.60;5.35;;;;;;;18.78;41.93;101163.31;4994225;28;19927;-70
2022/11/19 11:18:30;;;;;;;11.15;5.85;;;;;;;18.82;42.09;101174.50;4990376;28;20509;-72
2022/11/19 11:20:56;;;;;;;8.40;5.50;;;;;;;18.82;41.90;101169.22;4990015;28;20439;-71
2022/11/19 11:23:24;;;;;;;7.95;5.88;;;;;;;18.88;41.89;101174.03;4990132;28;20067;-67
2022/11/19 11:25:53;;;;;;;8.38;6.18;;;;;;;18.79;40.86;101165.00;4989594;28;20073;-73
2022/11/19 11:28:21;;;;;;;7.75;5.53;;;;;;;18.88;41.65;101168.75;4990115;28;20038;-65
2022/11/19 11:31:04;;;;;;;8.07;5.70;;;;;;;18.79;41.78;101145.69;4989757;28;20034;-66
2022/11/19 11:33:40;;;;;;;7.30;5.55;;;;;;;18.90;41.75;101161.56;4990057;28;20037;-66
2022/11/19 11:36:10;;;;;;;8.32;5.65;;;;;;;18.74;41.83;101124.94;4990333;28;20093;-66
2022/11/19 11:38:42;;;;;;;7.95;5.97;;;;;;;18.88;41.44;101158.19;4991080;28;20037;-67
2022/11/19 11:41:11;;;;;;;8.05;5.40;;;;;;;18.72;41.48;101131.28;4990016;28;20030;-66
2022/11/19 11:43:40;;;;;;;9.10;5.90;;;;;;;18.92;41.56;101154.34;4990894;28;20502;-68
2022/11/19 11:46:09;;;;;;;8.57;5.68;;;;;;;18.83;40.49;101145.34;4990422;28;20042;-66
2022/11/19 11:48:47;;;;;;;10.15;6.03;;;;;;;18.88;40.43;101158.19;4987896;28;20048;-77